Latest Weather Observations for Albany Airport

IDW60801

Issued at 5:14 pm WST Wednesday 22 January 2020 (issued every 10 minutes, with the page automatically refreshed every 10 minutes)

About weather observations | Map of weather stations | Latest weather observations for WA | Other Formats
Station Details ID: 009999 Name: ALBANY AIRPORT Lat: -34.94 Lon: 117.82 Height: 68.4 m
Data from the previous 72 hours. | See also: Recent months at Albany Airport
Date/Time
WST
Temp
°C
App
Temp
°C
Dew
Point
°C
Rel
Hum
%
Delta-T
°C
Wind Press
QNH
hPa
Press
MSL
hPa
Rain since
9am
mm
Dir  Spd
km/h
Gust
km/h
Spd
kts
Gust
kts
22/05:01pm 19.4 13.2 12.7 65 3.8 WSW 37 56 20 30 1012.6 1012.4 -
22/05:00pm 19.5 13.3 12.5 64 3.9 WSW 37 54 20 29 1012.6 1012.4 -
22/04:30pm 20.6 12.8 11.2 55 5.2 WSW 43 61 23 33 1012.5 1012.3 -
22/04:05pm 21.6 14.4 11.9 54 5.5 WSW 41 63 22 34 1012.3 1012.1 -
22/04:00pm 21.5 14.7 11.8 54 5.4 WSW 39 54 21 29 1012.4 1012.2 -
22/03:30pm 21.0 14.1 12.7 59 4.7 WSW 41 59 22 32 1012.6 1012.4 -
22/03:04pm 21.7 15.0 13.3 59 4.8 WSW 41 65 22 35 1012.6 1012.4 -
22/03:00pm 20.6 14.1 14.0 66 3.8 WSW 41 57 22 31 1012.6 1012.4 -
22/02:30pm 21.7 14.1 12.3 55 5.3 WSW 44 67 24 36 1012.4 1012.2 -
22/02:00pm 21.9 16.9 13.3 58 5.0 WSW 32 57 17 31 1012.4 1012.2 -
22/01:30pm 20.1 13.5 13.8 67 3.6 WSW 41 56 22 30 1012.6 1012.4 -
22/01:11pm 21.7 15.4 13.6 60 4.7 WSW 39 57 21 31 1012.6 1012.4 -
22/01:00pm 21.1 15.3 14.0 64 4.1 WSW 37 54 20 29 1012.8 1012.6 -
22/12:46pm 21.2 15.6 13.4 61 4.5 WSW 35 54 19 29 1012.9 1012.7 -
22/12:30pm 20.3 15.2 14.9 71 3.2 WSW 35 46 19 25 1013.1 1012.9 -
22/12:07pm 19.1 14.9 15.6 80 2.1 WSW 32 54 17 29 1013.4 1013.2 -
22/12:00pm 18.4 15.1 16.9 91 0.9 WSW 30 41 16 22 1013.5 1013.3 -
22/11:43am 18.6 13.3 15.3 81 1.9 WSW 37 52 20 28 1013.6 1013.4 -
22/11:30am 20.3 14.8 13.7 66 3.8 WSW 35 48 19 26 1013.3 1013.1 -
22/11:00am 20.3 14.4 13.7 66 3.8 WSW 37 48 20 26 1013.4 1013.2 -
22/09:01am 16.0 13.2 14.2 89 1.0 WSW 22 32 12 17 1013.7 1013.5 0.0
22/09:00am 16.1 13.3 14.3 89 1.0 WSW 22 32 12 17 1013.8 1013.6 -
22/08:46am 16.1 13.2 13.9 87 1.2 WSW 22 30 12 16 1013.8 1013.6 -
22/08:39am 16.3 13.6 13.6 84 1.5 WSW 20 28 11 15 1013.8 1013.6 -
22/08:30am 15.9 13.0 13.9 88 1.1 WSW 22 32 12 17 1014.0 1013.8 -
22/08:08am 15.8 12.1 12.7 82 1.7 WSW 24 39 13 21 1013.8 1013.6 -
22/08:00am 16.4 12.7 12.8 79 2.0 WSW 24 35 13 19 1013.8 1013.6 -
22/07:30am 15.9 13.2 13.0 83 1.6 W 19 24 10 13 1013.7 1013.5 -
22/07:00am 14.4 12.0 12.8 90 0.9 W 17 22 9 12 1013.5 1013.3 -
22/06:51am 14.3 11.6 12.9 91 0.8 WSW 19 24 10 13 1013.4 1013.2 -
22/06:32am 14.4 10.6 12.4 88 1.1 W 24 35 13 19 1013.4 1013.2 -
22/06:30am 14.4 10.9 12.3 87 1.1 W 22 35 12 19 1013.3 1013.1 -
22/06:13am 14.4 10.9 12.1 86 1.2 WSW 22 33 12 18 1013.3 1013.1 -
22/06:00am 14.4 11.4 11.9 85 1.4 SW 19 32 10 17 1013.4 1013.2 -
22/05:52am 14.6 10.9 11.4 81 1.7 WSW 22 30 12 16 1013.4 1013.2 -
22/05:30am 15.6 11.7 9.5 67 3.2 WSW 20 30 11 16 1013.2 1013.0 -
22/05:00am 15.4 11.4 8.4 63 3.6 WSW 19 26 10 14 1013.1 1012.9 -
22/04:30am 15.2 10.9 8.0 62 3.6 WSW 20 32 11 17 1012.9 1012.7 -
22/04:00am 14.9 11.2 9.3 69 2.9 SW 19 26 10 14 1012.7 1012.5 -
22/03:30am 15.1 11.5 9.7 70 2.8 SW 19 30 10 16 1012.7 1012.5 -
22/03:00am 15.1 11.4 9.5 69 2.9 SW 19 26 10 14 1012.7 1012.5 0.0
22/02:30am 15.1 11.9 9.9 71 2.7 WSW 17 22 9 12 1012.6 1012.4 -
22/02:00am 15.2 11.4 9.8 70 2.8 SW 20 30 11 16 1013.0 1012.8 -
22/01:30am 15.1 12.2 8.1 63 3.5 WSW 13 19 7 10 1013.2 1013.0 -
22/01:00am 14.6 10.9 7.9 64 3.3 WSW 17 26 9 14 1013.2 1013.0 -
22/12:30am 14.9 10.6 7.9 63 3.5 SW 20 30 11 16 1013.5 1013.3 -
22/12:00am 15.0 10.8 8.3 64 3.4 SW 20 30 11 16 1013.8 1013.6 -
 
Date/Time
WST
Temp
°C
App
Temp
°C
Dew
Point
°C
Rel
Hum
%
Delta-T
°C
Wind Press
QNH
hPa
Press
MSL
hPa
Rain since
9am
mm
Dir  Spd
km/h
Gust
km/h
Spd
kts
Gust
kts
21/11:30pm 14.9 11.0 8.8 67 3.1 WSW 19 26 10 14 1014.0 1013.8 -
21/11:00pm 15.1 10.7 8.8 66 3.2 SW 22 32 12 17 1014.2 1014.0 -
21/10:30pm 15.2 11.8 7.7 61 3.7 WSW 15 26 8 14 1014.1 1013.9 -
21/10:00pm 15.2 10.9 8.0 62 3.6 SW 20 30 11 16 1014.4 1014.2 -
21/09:30pm 15.8 10.6 8.8 63 3.6 SW 26 35 14 19 1014.3 1014.1 -
21/09:00pm 15.6 11.6 8.4 62 3.7 WSW 19 32 10 17 1014.0 1013.8 -
21/08:30pm 15.3 11.6 8.1 62 3.6 WSW 17 24 9 13 1013.9 1013.7 -
21/08:00pm 15.7 11.4 7.7 59 4.0 SW 20 32 11 17 1013.8 1013.6 -
21/07:30pm 15.5 9.8 6.8 56 4.3 SW 26 37 14 20 1013.6 1013.4 -
21/07:00pm 16.1 9.8 7.3 56 4.4 SW 30 44 16 24 1013.4 1013.2 -
21/06:30pm 16.7 10.7 8.7 59 4.1 SW 30 44 16 24 1012.8 1012.6 -
21/06:00pm 16.9 10.4 8.3 57 4.4 SW 32 44 17 24 1012.3 1012.1 -
21/05:32pm 17.4 11.3 9.6 60 4.1 SW 32 50 17 27 1011.9 1011.7 -
21/05:30pm 17.5 11.2 9.7 60 4.1 SW 33 50 18 27 1011.9 1011.7 -
21/05:00pm 17.8 11.9 10.4 62 4.0 SW 32 46 17 25 1011.5 1011.3 -
21/04:31pm 18.0 11.7 9.6 58 4.4 WSW 33 56 18 30 1011.3 1011.1 -
21/04:30pm 18.1 12.3 9.5 57 4.5 SW 30 46 16 25 1011.3 1011.1 -
21/04:23pm 18.7 13.0 9.8 56 4.7 SW 30 48 16 26 1011.2 1011.0 -
21/04:00pm 18.7 12.0 9.8 56 4.7 WSW 35 44 19 24 1011.1 1010.9 -
21/03:30pm 19.2 13.3 11.0 59 4.5 SW 33 48 18 26 1011.1 1010.9 -
21/03:00pm 20.2 13.1 9.7 51 5.6 WSW 37 48 20 26 1010.8 1010.6 -
21/02:30pm 20.9 13.6 8.9 46 6.4 WSW 37 56 20 30 1010.8 1010.6 -
21/02:03pm 19.8 13.7 9.7 52 5.4 SW 32 50 17 27 1010.9 1010.7 -
21/02:00pm 19.6 12.9 9.8 53 5.2 SW 35 50 19 27 1011.0 1010.8 -
21/01:30pm 19.5 13.1 10.8 57 4.7 SW 35 50 19 27 1010.9 1010.7 -
21/01:22pm 19.4 13.6 10.9 58 4.6 SW 32 50 17 27 1010.9 1010.7 -
21/01:00pm 18.8 11.7 10.9 60 4.3 SW 39 50 21 27 1011.0 1010.8 -
21/12:00pm 19.7 14.3 12.9 65 3.9 SW 33 52 18 28 1010.6 1010.4 0.2
21/11:53am 19.2 13.9 12.5 65 3.8 SSW 32 52 17 28 1010.9 1010.7 0.2
21/11:30am 19.9 14.7 13.4 66 3.7 SW 33 48 18 26 1010.7 1010.5 0.2
21/11:00am 19.6 15.0 13.5 68 3.5 SW 30 44 16 24 1010.6 1010.4 0.2
21/10:47am 19.3 14.8 13.7 70 3.2 SW 30 50 16 27 1010.5 1010.3 0.2
21/10:30am 18.8 14.0 14.5 76 2.5 SW 33 44 18 24 1010.4 1010.2 0.2
21/10:00am 18.9 14.0 15.4 80 2.1 SW 35 50 19 27 1010.4 1010.2 0.2
21/09:35am 17.5 14.3 16.2 92 0.8 SW 28 46 15 25 1010.1 1009.9 0.2
21/09:30am 17.9 15.0 17.1 95 0.5 SW 28 37 15 20 1010.1 1009.9 0.2
21/09:03am 16.8 13.1 16.0 95 0.5 WSW 30 48 16 26 1009.9 1009.7 0.0
21/09:00am 16.9 13.6 16.1 95 0.5 WSW 28 39 15 21 1009.9 1009.7 2.2
21/08:30am 17.3 14.5 16.3 94 0.6 WSW 26 35 14 19 1009.8 1009.6 1.8
21/08:00am 18.7 16.5 16.9 89 1.1 W 24 33 13 18 1009.3 1009.1 0.4
21/07:41am 17.9 15.7 16.8 93 0.7 W 24 32 13 17 1009.2 1009.0 0.4
21/07:30am 17.3 14.9 16.3 94 0.6 W 24 32 13 17 1009.2 1009.0 0.4
21/07:23am 17.3 14.8 16.2 93 0.7 W 24 32 13 17 1009.4 1009.2 0.4
21/07:00am 16.9 14.6 15.8 93 0.6 W 22 32 12 17 1009.4 1009.2 0.0
21/06:30am 16.5 14.1 15.5 94 0.6 WNW 22 30 12 16 1009.1 1008.9 0.0
21/06:29am 16.5 14.1 15.5 94 0.6 WNW 22 30 12 16 1009.1 1008.9 0.0
21/06:24am 16.3 13.5 15.3 94 0.6 WNW 24 30 13 16 1009.1 1008.9 0.0
21/06:00am 16.5 13.5 14.7 89 1.0 WNW 24 32 13 17 1009.0 1008.8 0.0
21/05:57am 16.7 13.6 14.5 87 1.3 WNW 24 32 13 17 1009.0 1008.8 0.0
21/05:32am 16.8 13.5 14.1 84 1.5 WNW 24 32 13 17 1009.0 1008.8 0.0
21/05:30am 17.0 13.7 13.9 82 1.8 WNW 24 30 13 16 1009.0 1008.8 0.0
21/05:00am 17.1 13.6 13.4 79 2.1 WNW 24 33 13 18 1008.7 1008.5 0.0
21/04:30am 17.0 13.5 13.3 79 2.1 W 24 33 13 18 1008.9 1008.7 0.0
21/04:00am 17.1 13.9 13.0 77 2.3 WNW 22 32 12 17 1008.8 1008.6 0.0
21/03:30am 17.1 14.7 12.8 76 2.4 W 17 26 9 14 1009.3 1009.1 0.0
21/03:00am 16.9 14.2 12.8 77 2.3 WNW 19 24 10 13 1009.5 1009.3 0.0
21/02:30am 16.5 14.1 12.5 77 2.2 WNW 17 22 9 12 1009.6 1009.4 0.0
21/02:00am 17.1 14.3 12.6 75 2.5 WNW 19 28 10 15 1010.0 1009.8 0.0
21/01:30am 17.0 14.7 13.1 78 2.2 WNW 17 20 9 11 1010.2 1010.0 0.0
21/01:00am 16.8 15.3 14.1 84 1.5 WNW 15 19 8 10 1010.8 1010.6 0.0
21/12:30am 16.0 14.7 13.7 86 1.3 WNW 13 15 7 8 1010.9 1010.7 0.0
21/12:00am 17.0 16.2 14.1 83 1.7 WNW 11 13 6 7 1011.1 1010.9 0.0
 
Date/Time
WST
Temp
°C
App
Temp
°C
Dew
Point
°C
Rel
Hum
%
Delta-T
°C
Wind Press
QNH
hPa
Press
MSL
hPa
Rain since
9am
mm
Dir  Spd
km/h
Gust
km/h
Spd
kts
Gust
kts
20/11:30pm 17.7 17.0 14.4 81 1.9 NW 11 15 6 8 1011.5 1011.3 0.0
20/11:00pm 17.6 17.4 14.7 83 1.7 WNW 9 11 5 6 1012.4 1012.2 0.0
20/10:30pm 17.1 17.3 14.6 85 1.4 NW 7 9 4 5 1012.5 1012.3 0.0
20/10:00pm 17.0 17.2 14.6 86 1.4 WNW 7 11 4 6 1013.0 1012.8 0.0
20/09:30pm 16.2 16.2 14.2 88 1.1 W 7 11 4 6 1013.4 1013.2 0.0
20/09:00pm 16.7 16.9 14.7 88 1.2 WNW 7 9 4 5 1013.0 1012.8 0.0
20/08:30pm 17.1 17.3 14.6 85 1.4 SW 7 9 4 5 1013.0 1012.8 0.0
20/08:00pm 17.8 17.6 14.7 82 1.8 SSW 9 13 5 7 1013.1 1012.9 0.0
20/07:30pm 18.8 18.9 14.5 76 2.5 SE 7 9 4 5 1012.3 1012.1 0.0
20/07:00pm 19.8 19.2 14.6 72 3.0 SE 11 15 6 8 1012.2 1012.0 0.0
20/06:30pm 20.6 19.7 14.9 70 3.4 ESE 13 15 7 8 1012.1 1011.9 0.0
20/06:00pm 21.0 20.2 15.1 69 3.5 SE 13 19 7 10 1012.3 1012.1 0.0
20/05:30pm 20.6 19.0 14.9 70 3.4 SE 17 24 9 13 1012.2 1012.0 0.0
20/05:00pm 21.5 19.3 14.9 66 3.9 SE 20 26 11 14 1012.0 1011.8 0.0
20/04:30pm 22.1 19.9 14.5 62 4.5 SE 19 28 10 15 1012.0 1011.8 0.0
20/04:00pm 22.6 19.9 14.7 61 4.7 ESE 22 32 12 17 1011.8 1011.6 0.0
20/03:30pm 23.1 20.2 14.1 57 5.3 SE 22 30 12 16 1012.1 1011.9 0.0
20/03:00pm 22.3 18.9 13.6 58 5.1 SE 24 30 13 16 1012.1 1011.9 0.0
20/02:30pm 22.4 18.6 13.5 57 5.2 SE 26 33 14 18 1012.1 1011.9 0.0
20/02:00pm 23.5 20.4 14.5 57 5.3 SSE 24 33 13 18 1012.2 1012.0 0.0
20/01:30pm 23.8 20.1 13.9 54 5.8 SE 26 32 14 17 1012.1 1011.9 0.0
20/01:00pm 24.3 21.2 14.4 54 5.9 SE 24 32 13 17 1012.7 1012.5 0.0
20/12:30pm 23.1 19.7 13.8 55 5.4 SE 24 33 13 18 1013.4 1013.2 0.0
20/12:00pm 24.0 21.4 13.8 53 6.0 SSE 20 28 11 15 1013.9 1013.7 0.0
20/11:30am 23.6 21.1 13.5 53 5.9 SE 19 26 10 14 1014.1 1013.9 0.0
20/11:00am 23.9 21.8 14.6 56 5.5 SE 19 26 10 14 1014.4 1014.2 0.0
20/10:30am 23.3 21.3 13.8 55 5.6 SE 17 26 9 14 1015.0 1014.8 0.0
20/10:00am 24.0 22.3 12.6 49 6.6 E 13 19 7 10 1015.4 1015.2 0.0
20/09:30am 22.9 22.1 12.8 53 5.8 SE 9 17 5 9 1015.8 1015.6 0.0
20/09:00am 22.5 21.0 13.0 55 5.5 ENE 13 17 7 9 1015.9 1015.7 0.0
20/08:30am 21.3 20.4 13.7 62 4.4 E 11 19 6 10 1016.1 1015.9 0.0
20/08:00am 20.3 19.3 13.5 65 3.9 ENE 11 17 6 9 1016.4 1016.2 0.0
20/07:30am 18.7 18.0 13.1 70 3.2 NE 9 13 5 7 1016.5 1016.3 0.0
20/07:00am 17.5 16.9 13.4 77 2.3 NE 9 11 5 6 1016.4 1016.2 0.0
20/06:30am 15.4 16.7 14.1 92 0.7 CALM 0 0 0 0 1016.4 1016.2 0.0
20/06:00am 13.3 14.1 12.5 95 0.4 CALM 0 0 0 0 1016.4 1016.2 0.0
20/05:30am 12.0 12.3 10.9 93 0.6 CALM 0 0 0 0 1016.4 1016.2 0.0
20/05:00am 13.2 13.4 11.9 92 0.7 NE 2 6 1 3 1016.4 1016.2 0.0
20/04:30am 13.8 13.6 12.9 94 0.5 E 6 7 3 4 1016.1 1015.9 0.0
20/04:00am 13.3 12.4 12.5 95 0.4 SSW 9 11 5 6 1016.1 1015.9 0.0
20/03:30am 11.5 10.5 10.4 93 0.6 SSE 6 13 3 7 1016.1 1015.9 0.0
20/03:00am 12.9 12.6 11.6 92 0.7 ENE 4 7 2 4 1015.8 1015.6 0.0
20/02:30am 13.4 12.9 12.0 91 0.8 SSE 6 6 3 3 1015.9 1015.7 0.0
20/02:00am 13.6 12.8 11.8 89 1.0 E 7 9 4 5 1016.1 1015.9 0.0
20/01:30am 13.8 12.6 11.7 87 1.1 E 9 15 5 8 1016.0 1015.8 0.0
20/01:00am 14.4 12.0 12.6 89 1.0 ENE 17 22 9 12 1016.0 1015.8 0.0
20/12:30am 13.9 12.4 11.8 87 1.1 ENE 11 13 6 7 1017.0 1016.8 0.0
20/12:00am 14.3 12.8 11.8 85 1.3 E 11 13 6 7 1017.3 1017.1 0.0
 
Date/Time
WST
Temp
°C
App
Temp
°C
Dew
Point
°C
Rel
Hum
%
Delta-T
°C
Wind Press
QNH
hPa
Press
MSL
hPa
Rain since
9am
mm
Dir  Spd
km/h
Gust
km/h
Spd
kts
Gust
kts
19/11:30pm 14.6 13.4 11.7 83 1.6 E 9 13 5 7 1017.6 1017.4 0.0
19/11:00pm 15.1 13.3 12.1 82 1.6 ENE 13 17 7 9 1017.8 1017.6 0.0
19/10:30pm 15.4 13.6 12.2 81 1.7 E 13 17 7 9 1017.8 1017.6 0.0
19/10:00pm 15.6 13.4 12.0 79 2.0 E 15 19 8 10 1018.0 1017.8 0.0
19/09:30pm 15.9 14.0 11.9 77 2.2 E 13 19 7 10 1018.4 1018.2 0.0
19/09:00pm 16.3 13.7 11.9 75 2.4 ENE 17 22 9 12 1018.0 1017.8 0.0
19/08:30pm 16.6 13.5 11.7 73 2.7 E 19 28 10 15 1017.8 1017.6 0.0
19/08:00pm 17.1 13.5 11.8 71 2.9 E 22 32 12 17 1017.6 1017.4 0.0
19/07:30pm 17.4 13.1 11.9 70 3.0 E 26 35 14 19 1017.7 1017.5 0.0
19/07:00pm 18.1 13.8 12.1 68 3.3 E 26 39 14 21 1017.6 1017.4 0.0
19/06:30pm 19.1 14.2 11.4 61 4.2 E 28 39 15 21 1017.6 1017.4 0.0
19/06:00pm 19.8 14.1 11.3 58 4.7 ESE 32 43 17 23 1017.6 1017.4 0.0
19/05:30pm 20.2 14.8 10.9 55 5.1 E 30 41 16 22 1017.2 1017.0 0.0

Other formats

Comma delimited format used in spreadsheet applications
http://www.bom.gov.au/fwo/IDW60801/IDW60801.94802.axf

JavaScript Object Notation format (JSON) in row-major order
http://www.bom.gov.au/fwo/IDW60801/IDW60801.94802.json

Data quality

Most of these data are generated automatically and are frequently updated. Quality checks on data are not normally performed. It is possible for incorrect values to appear. Refer to information at About Latest Weather Observations and please check the disclaimer before using these data.